KEAT/EAT METAR and TAF weather

Enter ICAO airport designator
Station Type Date Time Source
KEAT METAR 2021/10/22 18:55 UTC NOAA

KEAT 221855Z AUTO 00000KT 10SM -RA FEW032 OVC055 11/09 A2974 RMK AO2 RAB00E14B31 SLP072 P0001 T01110089


Station Type Date Time Source
KEAT Decoded METAR 2021/10/22 18:55 UTC NOAA

WENATCHEE PANGBORN MEMO, WA, United States (KEAT) 47-24N 120-12W 377M
Oct 22, 2021 - 02:55 PM EDT / 2021.10.22 1855 UTC
Wind: Calm:0
Visibility: 10 mile(s):0
Sky conditions: overcast
Weather: light rain
Precipitation last hour: 0.01 inches
Temperature: 52.0 F (11.1 C)
Dew Point: 48.0 F (8.9 C)
Relative Humidity: 86%
Pressure (altimeter): 29.74 in. Hg (1007 hPa)
ob: KEAT 221855Z AUTO 00000KT 10SM -RA FEW032 OVC055 11/09 A2974 RMK AO2 RAB00E14B31 SLP072 P0001 T01110089
cycle: 19

Station Type Date Time Source
KEAT TAF 2021/10/22 18:30 UTC NOAA

TAF
AMD KEAT 221827Z 2218/2318 32003KT P6SM FEW016 FEW025 OVC045
FM222000 25006KT P6SM VCSH BKN030
FM230100 31006KT P6SM SCT050 BKN120
FM230500 30008KT P6SM BKN200
FM231400 30005KT P6SM VCSH BKN040 OVC070

Example: see airport list